createdAt,value
2023-05-14T00:01:42.006Z,5.25
2023-05-14T00:04:44.501Z,4.70
2023-05-14T00:07:46.827Z,4.30
2023-05-14T00:10:49.207Z,4.63
2023-05-14T00:13:51.588Z,5.03
2023-05-14T00:16:53.937Z,4.70
2023-05-14T00:19:56.476Z,4.55
2023-05-14T00:22:58.895Z,4.18
2023-05-14T00:26:01.229Z,4.95
2023-05-14T00:29:03.534Z,4.85
2023-05-14T00:32:06.474Z,5.38
2023-05-14T00:35:09.262Z,4.75
2023-05-14T00:38:16.941Z,4.63
2023-05-14T00:41:19.324Z,4.60
2023-05-14T00:44:21.751Z,4.93
2023-05-14T00:47:24.177Z,5.00
2023-05-14T00:50:26.746Z,4.93
2023-05-14T00:53:29.509Z,4.78
2023-05-14T00:56:31.931Z,5.00
2023-05-14T00:59:34.732Z,5.40
2023-05-14T01:02:37.126Z,4.65
2023-05-14T01:06:13.960Z,4.53
2023-05-14T01:09:22.784Z,4.23
2023-05-14T01:12:50.946Z,4.05
2023-05-14T01:15:57.288Z,4.90
2023-05-14T01:19:00.849Z,5.33
2023-05-14T01:22:03.382Z,5.72
2023-05-14T01:25:07.085Z,5.00
2023-05-14T01:28:19.934Z,4.57
2023-05-14T01:31:28.018Z,4.80
2023-05-14T01:34:31.378Z,4.80
2023-05-14T01:37:36.295Z,4.70
2023-05-14T01:40:39.586Z,5.47
2023-05-14T01:43:42.524Z,5.63
2023-05-14T01:46:44.903Z,5.50
2023-05-14T01:49:47.393Z,5.97
2023-05-14T01:52:51.272Z,6.57
2023-05-14T01:55:53.616Z,6.63
2023-05-14T01:58:56.895Z,6.10
2023-05-14T02:01:59.284Z,6.20
2023-05-14T02:05:01.786Z,6.38
2023-05-14T02:08:04.423Z,6.75
2023-05-14T02:11:08.101Z,6.27
2023-05-14T02:14:10.874Z,5.78
2023-05-14T02:17:15.969Z,5.78
2023-05-14T02:20:18.544Z,6.60
2023-05-14T02:23:28.107Z,6.32
2023-05-14T02:26:36.901Z,6.63
2023-05-14T02:29:39.534Z,6.63
2023-05-14T02:32:42.047Z,7.07
2023-05-14T02:35:44.431Z,6.78
2023-05-14T02:38:46.811Z,6.40
2023-05-14T02:41:49.201Z,6.40
2023-05-14T02:44:52.963Z,5.78
2023-05-14T02:47:56.531Z,5.15
2023-05-14T02:50:58.928Z,6.17
2023-05-14T02:54:01.350Z,6.15
2023-05-14T02:57:03.886Z,5.68
2023-05-14T03:00:06.914Z,5.85
2023-05-14T03:03:09.742Z,6.60
2023-05-14T03:06:12.807Z,5.95
2023-05-14T03:09:15.295Z,6.72
2023-05-14T03:12:18.228Z,6.00
2023-05-14T03:15:20.598Z,6.05
2023-05-14T03:18:23.108Z,5.68
2023-05-14T03:21:25.538Z,6.60
2023-05-14T03:24:27.886Z,5.95
2023-05-14T03:27:30.313Z,5.88
2023-05-14T03:30:32.891Z,5.75
2023-05-14T03:33:35.443Z,5.50
2023-05-14T03:36:39.720Z,5.38
2023-05-14T03:39:42.136Z,5.70
2023-05-14T03:42:44.554Z,5.47
2023-05-14T03:45:47.069Z,5.35
2023-05-14T03:48:51.979Z,6.57
2023-05-14T03:51:54.543Z,6.33
2023-05-14T03:54:56.993Z,6.40
2023-05-14T03:57:59.382Z,6.57
2023-05-14T04:01:02.164Z,6.38
2023-05-14T04:04:04.800Z,6.07
2023-05-14T04:07:07.434Z,6.32
2023-05-14T04:10:09.966Z,6.40
2023-05-14T04:13:12.350Z,6.10
2023-05-14T04:16:15.942Z,6.15
2023-05-14T04:19:20.154Z,5.75
2023-05-14T04:22:22.558Z,6.47
2023-05-14T04:25:24.875Z,6.05
2023-05-14T04:28:27.285Z,6.40
2023-05-14T04:31:30.415Z,6.57
2023-05-14T04:34:32.800Z,6.05
2023-05-14T04:37:35.185Z,6.10
2023-05-14T04:40:37.515Z,5.90
2023-05-14T04:43:40.478Z,5.67
2023-05-14T04:46:42.806Z,5.88
2023-05-14T04:49:45.238Z,5.30
2023-05-14T04:52:47.839Z,5.63
2023-05-14T04:55:50.246Z,5.15
2023-05-14T04:58:52.653Z,4.85
2023-05-14T05:01:55.127Z,4.35
2023-05-14T05:04:57.546Z,3.25
2023-05-14T05:08:00.198Z,2.83
2023-05-14T05:11:02.575Z,3.13
2023-05-14T05:14:04.924Z,2.70
2023-05-14T05:17:07.346Z,2.78
2023-05-14T05:20:10.222Z,3.03
2023-05-14T05:23:12.545Z,2.60
2023-05-14T05:26:14.880Z,2.58
2023-05-14T05:29:17.644Z,2.50
2023-05-14T05:32:20.044Z,2.83
2023-05-14T05:35:22.534Z,2.88
2023-05-14T05:38:24.965Z,2.80
2023-05-14T05:41:27.298Z,2.72
2023-05-14T05:44:29.601Z,2.30
2023-05-14T05:47:31.932Z,2.28
2023-05-14T05:50:34.323Z,2.25
2023-05-14T05:53:36.841Z,3.43
2023-05-14T05:56:39.179Z,2.80
2023-05-14T05:59:41.530Z,2.40
2023-05-14T06:02:44.359Z,2.17
2023-05-14T06:05:46.990Z,2.20
2023-05-14T06:08:49.689Z,2.40
2023-05-14T06:11:52.144Z,2.50
2023-05-14T06:14:55.702Z,2.10
2023-05-14T06:17:58.196Z,2.83
2023-05-14T06:21:00.615Z,2.20
2023-05-14T06:24:02.954Z,1.93
2023-05-14T06:27:05.542Z,2.40
2023-05-14T06:30:08.510Z,2.47
2023-05-14T06:33:12.965Z,2.35
2023-05-14T06:36:15.287Z,2.40
2023-05-14T06:39:17.632Z,2.35
2023-05-14T06:42:19.987Z,2.25
2023-05-14T06:45:23.302Z,2.27
2023-05-14T06:48:27.851Z,2.30
2023-05-14T06:51:30.740Z,2.50
2023-05-14T06:54:33.105Z,2.87
2023-05-14T06:57:35.534Z,2.33
2023-05-14T07:00:37.984Z,2.50
2023-05-14T07:03:40.467Z,2.78
2023-05-14T07:06:42.826Z,2.67
2023-05-14T07:09:45.187Z,2.30
2023-05-14T07:12:49.315Z,2.45
2023-05-14T07:15:51.730Z,2.60
2023-05-14T07:18:54.161Z,2.50
2023-05-14T07:21:57.907Z,2.85
2023-05-14T07:25:00.315Z,2.57
2023-05-14T07:28:02.773Z,2.90
2023-05-14T07:31:08.950Z,3.10
2023-05-14T07:34:12.768Z,2.88
2023-05-14T07:37:15.364Z,3.28
2023-05-14T07:40:17.791Z,3.08
2023-05-14T07:43:20.179Z,3.03
2023-05-14T07:46:23.949Z,2.57
2023-05-14T07:49:26.301Z,2.40
2023-05-14T07:52:28.794Z,2.50
2023-05-14T07:55:31.460Z,2.93
2023-05-14T07:58:35.105Z,2.75
2023-05-14T08:01:39.329Z,2.70
2023-05-14T08:04:42.031Z,2.55
2023-05-14T08:07:44.964Z,2.70
2023-05-14T08:10:47.325Z,2.58
2023-05-14T08:13:49.814Z,2.35
2023-05-14T08:16:52.363Z,2.40
2023-05-14T08:19:54.853Z,2.15
2023-05-14T08:22:58.115Z,2.40
2023-05-14T08:26:00.502Z,2.40
2023-05-14T08:29:02.827Z,2.05
2023-05-14T08:32:15.525Z,2.30
2023-05-14T08:35:24.859Z,2.70
2023-05-14T08:38:27.221Z,2.92
2023-05-14T08:41:30.167Z,2.50
2023-05-14T08:44:57.188Z,2.60
2023-05-14T08:48:02.021Z,2.13
2023-05-14T08:51:04.638Z,2.53
2023-05-14T08:54:07.429Z,2.78
2023-05-14T08:57:11.161Z,2.33
2023-05-14T09:00:15.623Z,2.75
2023-05-14T09:03:18.478Z,2.17
2023-05-14T09:06:22.278Z,2.90
2023-05-14T09:09:24.666Z,2.45
2023-05-14T09:12:27.033Z,3.15
2023-05-14T09:15:31.055Z,2.80
2023-05-14T09:18:36.083Z,2.70
2023-05-14T09:21:38.654Z,3.50
2023-05-14T09:24:41.809Z,2.83
2023-05-14T09:27:50.221Z,2.77
2023-05-14T09:30:52.707Z,2.75
2023-05-14T09:33:55.057Z,2.92
2023-05-14T09:36:59.268Z,2.63
2023-05-14T09:40:06.789Z,3.13
2023-05-14T09:43:09.729Z,3.10
2023-05-14T09:46:12.111Z,3.00
2023-05-14T09:49:14.734Z,2.60
2023-05-14T09:52:19.481Z,2.63
2023-05-14T09:55:22.945Z,2.80
2023-05-14T09:58:25.442Z,2.30
2023-05-14T10:01:30.224Z,3.90
2023-05-14T10:04:33.967Z,2.70
2023-05-14T10:07:42.825Z,2.25
2023-05-14T10:10:45.406Z,2.30
2023-05-14T10:14:02.781Z,2.80
2023-05-14T10:17:06.465Z,2.63
2023-05-14T10:20:13.135Z,2.80
2023-05-14T10:23:15.722Z,2.63
2023-05-14T10:26:18.384Z,2.17
2023-05-14T10:29:34.904Z,2.33
2023-05-14T10:32:37.997Z,2.10
2023-05-14T10:36:06.138Z,2.50
2023-05-14T10:39:09.140Z,2.38
2023-05-14T10:42:14.011Z,1.95
2023-05-14T10:45:16.887Z,2.30
2023-05-14T10:48:20.029Z,2.30
2023-05-14T10:51:23.376Z,2.50
2023-05-14T10:54:28.117Z,2.45
2023-05-14T10:57:32.389Z,2.42
2023-05-14T11:00:35.455Z,2.30
2023-05-14T11:03:43.140Z,2.15
2023-05-14T11:06:47.528Z,1.92
2023-05-14T11:09:51.051Z,2.05
2023-05-14T11:12:53.390Z,2.35
2023-05-14T11:15:56.880Z,2.10
2023-05-14T11:19:04.016Z,2.00
2023-05-14T11:22:07.987Z,1.80
2023-05-14T11:25:14.483Z,2.20
2023-05-14T11:28:17.334Z,1.90
2023-05-14T11:31:19.736Z,2.23
2023-05-14T11:34:22.139Z,1.90
2023-05-14T11:37:24.542Z,1.83
2023-05-14T11:40:27.031Z,1.67
2023-05-14T11:43:29.576Z,1.27
2023-05-14T11:46:31.996Z,1.60
2023-05-14T11:49:37.448Z,1.40
2023-05-14T11:52:41.649Z,1.50
2023-05-14T11:55:44.077Z,1.10
2023-05-14T11:58:49.432Z,1.40
2023-05-14T12:01:54.807Z,1.40
2023-05-14T12:04:57.653Z,1.40
2023-05-14T12:08:00.035Z,1.60
2023-05-14T12:11:02.378Z,1.08
2023-05-14T12:14:12.686Z,1.27
2023-05-14T12:17:19.982Z,1.45
2023-05-14T12:20:23.668Z,1.42
2023-05-14T12:23:27.732Z,1.10
2023-05-14T12:26:34.135Z,1.50
2023-05-14T12:29:39.411Z,1.58
2023-05-14T12:32:41.840Z,1.20
2023-05-14T12:35:44.610Z,1.52
2023-05-14T12:38:47.020Z,1.38
2023-05-14T12:41:49.385Z,1.58
2023-05-14T12:44:52.198Z,1.70
2023-05-14T12:47:54.644Z,1.67
2023-05-14T12:50:57.057Z,1.83
2023-05-14T12:53:59.381Z,1.43
2023-05-14T12:57:01.724Z,1.38
2023-05-14T13:00:08.237Z,1.48
2023-05-14T13:03:10.952Z,1.57
2023-05-14T13:06:13.500Z,1.60
2023-05-14T13:09:15.908Z,4.05
2023-05-14T13:12:18.278Z,5.10
2023-05-14T13:15:20.596Z,3.05
2023-05-14T13:18:23.012Z,2.22
2023-05-14T13:21:25.468Z,2.30
2023-05-14T13:24:27.859Z,2.47
2023-05-14T13:27:30.552Z,2.00
2023-05-14T13:30:32.960Z,1.17
2023-05-14T13:33:41.373Z,1.47
2023-05-14T13:36:43.918Z,1.52
2023-05-14T13:39:46.329Z,1.83
2023-05-14T13:42:48.708Z,1.95
2023-05-14T13:45:51.398Z,1.40
2023-05-14T13:48:53.745Z,1.77
2023-05-14T13:51:56.105Z,1.60
2023-05-14T13:54:58.554Z,1.63
2023-05-14T13:58:02.533Z,2.30
2023-05-14T14:01:05.047Z,2.00
2023-05-14T14:04:07.393Z,1.50
2023-05-14T14:07:09.767Z,1.75
2023-05-14T14:10:12.426Z,1.77
2023-05-14T14:13:14.767Z,1.77
2023-05-14T14:16:17.220Z,1.80
2023-05-14T14:19:19.628Z,1.98
2023-05-14T14:22:22.471Z,1.40
2023-05-14T14:25:25.696Z,2.43
2023-05-14T14:28:28.209Z,1.80
2023-05-14T14:31:30.786Z,1.80
2023-05-14T14:34:33.184Z,2.00
2023-05-14T14:37:35.575Z,1.95
2023-05-14T14:40:38.005Z,2.80
2023-05-14T14:43:41.127Z,2.33
2023-05-14T14:46:43.552Z,2.38
2023-05-14T14:49:45.957Z,2.28
2023-05-14T14:52:48.407Z,3.50
2023-05-14T14:55:51.495Z,2.73
2023-05-14T14:58:53.851Z,5.53
2023-05-14T15:01:56.230Z,3.95
2023-05-14T15:04:58.574Z,3.43
2023-05-14T15:08:00.938Z,3.15
2023-05-14T15:11:03.360Z,3.03
2023-05-14T15:14:05.788Z,3.38
2023-05-14T15:17:08.225Z,4.13
2023-05-14T15:20:11.755Z,3.20
2023-05-14T15:23:17.322Z,4.28
2023-05-14T15:26:19.692Z,5.20
2023-05-14T15:29:22.420Z,6.90
2023-05-14T15:32:27.167Z,6.90
2023-05-14T15:35:29.654Z,5.93
2023-05-14T15:38:32.022Z,21.50
2023-05-14T15:41:34.444Z,14.75
2023-05-14T15:44:38.836Z,13.55
2023-05-14T15:47:41.825Z,16.60
2023-05-14T15:50:44.298Z,13.15
2023-05-14T15:53:46.654Z,8.88
2023-05-14T15:56:49.109Z,7.23
2023-05-14T15:59:51.968Z,5.80
2023-05-14T16:02:54.435Z,5.38
2023-05-14T16:05:57.259Z,6.10
2023-05-14T16:09:00.938Z,4.95
2023-05-14T16:12:04.566Z,6.05
2023-05-14T16:15:08.031Z,35.92
2023-05-14T16:18:10.706Z,53.88
2023-05-14T16:21:13.277Z,38.63
2023-05-14T16:24:18.163Z,25.05
2023-05-14T16:27:20.539Z,21.17
2023-05-14T16:30:23.073Z,10.75
2023-05-14T16:33:25.526Z,5.85
2023-05-14T16:36:28.038Z,4.50
2023-05-14T16:39:30.360Z,5.35
2023-05-14T16:42:32.699Z,4.43
2023-05-14T16:45:37.270Z,4.30
2023-05-14T16:48:39.842Z,7.03
2023-05-14T16:51:43.908Z,7.70
2023-05-14T16:54:46.263Z,7.40
2023-05-14T16:57:48.698Z,5.63
2023-05-14T17:00:51.058Z,4.85
2023-05-14T17:03:53.898Z,4.97
2023-05-14T17:06:57.349Z,5.63
2023-05-14T17:10:00.751Z,5.20
2023-05-14T17:13:03.379Z,4.72
2023-05-14T17:16:05.971Z,4.70
2023-05-14T17:19:08.780Z,4.45
2023-05-14T17:22:11.425Z,4.25
2023-05-14T17:25:13.798Z,3.88
2023-05-14T17:28:16.226Z,4.40
2023-05-14T17:31:18.765Z,3.92
2023-05-14T17:34:21.175Z,3.50
2023-05-14T17:37:24.396Z,3.73
2023-05-14T17:40:26.815Z,3.70
2023-05-14T17:43:29.197Z,4.25
2023-05-14T17:46:33.744Z,3.47
2023-05-14T17:49:36.345Z,5.68
2023-05-14T17:52:38.824Z,7.70
2023-05-14T17:55:43.641Z,9.18
2023-05-14T17:58:46.802Z,6.20
2023-05-14T18:01:49.130Z,8.50
2023-05-14T18:04:51.551Z,9.50
2023-05-14T18:07:55.165Z,11.00
2023-05-14T18:10:58.558Z,8.18
2023-05-14T18:14:01.265Z,5.15
2023-05-14T18:17:04.024Z,4.53
2023-05-14T18:20:07.592Z,5.18
2023-05-14T18:23:10.201Z,4.45
2023-05-14T18:26:12.888Z,4.38
2023-05-14T18:29:15.342Z,3.33
2023-05-14T18:32:17.981Z,3.55
2023-05-14T18:35:20.320Z,4.30
2023-05-14T18:38:22.638Z,4.40
2023-05-14T18:41:25.124Z,5.07
2023-05-14T18:44:27.600Z,5.18
2023-05-14T18:47:30.434Z,5.05
2023-05-14T18:50:32.988Z,5.60
2023-05-14T18:53:35.479Z,5.90
2023-05-14T18:56:40.065Z,8.00
2023-05-14T18:59:42.469Z,7.77
2023-05-14T19:02:44.890Z,9.13
2023-05-14T19:05:47.617Z,9.38
2023-05-14T19:08:50.307Z,7.73
2023-05-14T19:11:52.705Z,8.00
2023-05-14T19:14:55.254Z,6.80
2023-05-14T19:17:57.946Z,7.15
2023-05-14T19:21:00.561Z,6.00
2023-05-14T19:24:03.035Z,5.53
2023-05-14T19:27:05.739Z,5.95
2023-05-14T19:30:08.658Z,5.10
2023-05-14T19:33:11.151Z,5.00
2023-05-14T19:36:13.568Z,5.65
2023-05-14T19:39:16.005Z,6.07
2023-05-14T19:42:18.696Z,4.90
2023-05-14T19:45:21.037Z,5.47
2023-05-14T19:48:23.383Z,5.07
2023-05-14T19:51:25.739Z,5.53
2023-05-14T19:54:28.121Z,5.28
2023-05-14T19:57:31.091Z,4.93
2023-05-14T20:00:33.498Z,5.40
2023-05-14T20:03:35.934Z,5.40
2023-05-14T20:06:40.307Z,5.70
2023-05-14T20:09:42.725Z,5.57
2023-05-14T20:12:45.064Z,5.53
2023-05-14T20:15:47.516Z,5.57
2023-05-14T20:18:49.996Z,5.53
2023-05-14T20:21:52.395Z,5.97
2023-05-14T20:24:54.773Z,6.00
2023-05-14T20:27:57.142Z,6.30
2023-05-14T20:31:00.211Z,6.00
2023-05-14T20:34:03.494Z,6.10
2023-05-14T20:37:06.762Z,6.43
2023-05-14T20:40:12.779Z,6.43
2023-05-14T20:43:15.412Z,6.03
2023-05-14T20:46:17.783Z,5.90
2023-05-14T20:49:20.127Z,4.75
2023-05-14T20:52:22.474Z,4.40
2023-05-14T20:55:25.041Z,4.15
2023-05-14T20:58:27.579Z,3.70
2023-05-14T21:01:29.986Z,3.57
2023-05-14T21:04:33.535Z,3.20
2023-05-14T21:07:36.557Z,3.95
2023-05-14T21:10:38.943Z,4.43
2023-05-14T21:13:43.964Z,4.40
2023-05-14T21:16:46.652Z,3.63
2023-05-14T21:19:49.048Z,3.55
2023-05-14T21:22:51.432Z,4.00
2023-05-14T21:25:54.962Z,3.88
2023-05-14T21:28:57.860Z,3.42
2023-05-14T21:32:00.341Z,3.97
2023-05-14T21:35:03.406Z,3.85
2023-05-14T21:38:05.994Z,2.97
2023-05-14T21:41:08.407Z,3.47
2023-05-14T21:44:10.765Z,3.88
2023-05-14T21:47:13.258Z,4.10
2023-05-14T21:50:15.704Z,3.97
2023-05-14T21:53:18.145Z,3.85
2023-05-14T21:56:21.126Z,3.92
2023-05-14T21:59:23.498Z,4.22
2023-05-14T22:02:26.520Z,3.87
2023-05-14T22:05:29.261Z,3.97
2023-05-14T22:08:32.244Z,3.63
2023-05-14T22:11:34.565Z,4.17
2023-05-14T22:14:36.937Z,4.05
2023-05-14T22:17:39.480Z,3.72
2023-05-14T22:20:42.827Z,4.53
2023-05-14T22:23:45.390Z,4.03
2023-05-14T22:26:47.738Z,4.00
2023-05-14T22:29:50.158Z,3.95
2023-05-14T22:32:52.582Z,3.57
2023-05-14T22:35:54.995Z,3.75
2023-05-14T22:38:57.382Z,3.90
2023-05-14T22:41:59.844Z,3.90
2023-05-14T22:45:02.295Z,3.90
2023-05-14T22:48:04.839Z,3.40
2023-05-14T22:51:07.396Z,3.67
2023-05-14T22:54:10.531Z,4.22
2023-05-14T22:57:12.913Z,4.20
2023-05-14T23:00:15.899Z,3.78
2023-05-14T23:03:18.232Z,4.07
2023-05-14T23:06:20.913Z,3.85
2023-05-14T23:09:23.492Z,3.92
2023-05-14T23:12:26.079Z,3.93
2023-05-14T23:15:28.498Z,4.15
2023-05-14T23:18:31.009Z,4.22
2023-05-14T23:21:33.511Z,3.63
2023-05-14T23:24:35.846Z,3.75
2023-05-14T23:27:38.319Z,4.18
2023-05-14T23:30:40.647Z,3.88
2023-05-14T23:33:44.672Z,3.97
2023-05-14T23:36:47.012Z,3.40
2023-05-14T23:39:49.469Z,4.63
2023-05-14T23:42:51.858Z,3.67
2023-05-14T23:45:54.381Z,4.10
2023-05-14T23:48:57.152Z,4.55
2023-05-14T23:51:59.478Z,4.07
2023-05-14T23:55:01.973Z,4.30
2023-05-14T23:58:04.937Z,3.85
